Time,TemperatureF,DewpointF,PressureIn,WindDirection,WindDirectionDegrees,WindSpeedMPH,WindSpeedGustMPH,Humidity,HourlyPrecipIn,Conditions,Clouds,dailyrainin,SoftwareType,DateUTC
2013-02-13 01:32:00,45.1,42.6,29.82,NE,45,0.0,4.0,91,0.00,,,0.00,Wunderground v.1.12,2013-02-13 06:32:00,
2013-02-13 01:37:00,45.1,42.6,29.82,NE,45,0.0,3.0,91,0.00,,,0.00,Wunderground v.1.12,2013-02-13 06:37:00,
2013-02-13 01:42:00,45.1,42.6,29.82,NE,45,0.0,2.0,91,0.00,,,0.00,Wunderground v.1.12,2013-02-13 06:42:00,
2013-02-13 01:47:00,44.9,42.7,29.82,North,0,0.0,7.0,92,0.00,,,0.00,Wunderground v.1.12,2013-02-13 06:47:00,
2013-02-13 01:52:00,44.9,42.7,29.82,East,90,1.0,6.0,92,0.00,,,0.00,Wunderground v.1.12,2013-02-13 06:52:00,
2013-02-13 01:57:00,44.9,42.7,29.82,NNE,23,0.0,5.0,92,0.00,,,0.00,Wunderground v.1.12,2013-02-13 06:57:00,
2013-02-13 02:02:00,44.9,42.7,29.81,East,90,0.0,5.0,92,0.00,,,0.00,Wunderground v.1.12,2013-02-13 07:02:00,
2013-02-13 02:07:00,44.8,42.6,29.81,North,0,1.0,3.0,92,0.00,,,0.00,Wunderground v.1.12,2013-02-13 07:07:00,
2013-02-13 02:12:00,44.8,42.6,29.81,NNE,23,1.0,6.0,92,0.00,,,0.00,Wunderground v.1.12,2013-02-13 07:12:00,
2013-02-13 02:17:00,44.8,42.3,29.82,NNE,23,1.0,6.0,91,0.00,,,0.00,Wunderground v.1.12,2013-02-13 07:17:00,
2013-02-13 02:22:00,44.6,42.4,29.82,North,0,0.0,3.0,92,0.00,,,0.00,Wunderground v.1.12,2013-02-13 07:22:00,
2013-02-13 02:27:00,44.6,42.4,29.82,N/A,-737280,0.0,0.0,92,0.00,,,0.00,Wunderground v.1.12,2013-02-13 07:27:00,
2013-02-13 02:32:00,44.6,42.4,29.82,NNE,23,1.0,6.0,92,0.00,,,0.00,Wunderground v.1.12,2013-02-13 07:32:00,
2013-02-13 02:37:00,44.6,42.4,29.82,SE,135,0.0,4.0,92,0.00,,,0.00,Wunderground v.1.12,2013-02-13 07:37:00,
2013-02-13 02:42:00,44.6,42.4,29.82,North,0,1.0,10.0,92,0.00,,,0.00,Wunderground v.1.12,2013-02-13 07:42:00,
2013-02-13 02:47:00,44.6,42.4,29.81,NE,45,1.0,7.0,92,0.00,,,0.00,Wunderground v.1.12,2013-02-13 07:47:00,
2013-02-13 02:52:00,44.6,42.4,29.81,ENE,68,1.0,5.0,92,0.00,,,0.00,Wunderground v.1.12,2013-02-13 07:52:00,
2013-02-13 02:57:00,44.6,42.4,29.81,ENE,68,1.0,4.0,92,0.00,,,0.00,Wunderground v.1.12,2013-02-13 07:57:00,
2013-02-13 03:02:00,44.5,42.3,29.82,NNE,23,1.0,7.0,92,0.00,,,0.00,Wunderground v.1.12,2013-02-13 08:02:00,
2013-02-13 03:07:00,44.5,42.3,29.82,NNE,23,2.0,7.0,92,0.00,,,0.00,Wunderground v.1.12,2013-02-13 08:07:00,
2013-02-13 03:12:00,44.5,42.3,29.82,NE,45,1.0,5.0,92,0.00,,,0.00,Wunderground v.1.12,2013-02-13 08:12:00,
2013-02-13 03:17:00,44.4,42.2,29.81,NNW,338,0.0,1.0,92,0.00,,,0.00,Wunderground v.1.12,2013-02-13 08:17:00,
2013-02-13 03:22:00,44.3,42.1,29.81,North,0,0.0,1.0,92,0.00,,,0.00,Wunderground v.1.12,2013-02-13 08:22:00,
2013-02-13 03:27:00,44.3,42.1,29.81,NE,45,1.0,7.0,92,0.00,,,0.00,Wunderground v.1.12,2013-02-13 08:27:00,
2013-02-13 03:32:00,44.2,42.0,29.80,NNE,23,0.0,2.0,92,0.00,,,0.00,Wunderground v.1.12,2013-02-13 08:32:00,
2013-02-13 03:37:00,44.2,42.0,29.80,N/A,-737280,0.0,0.0,92,0.00,,,0.00,Wunderground v.1.12,2013-02-13 08:37:00,
2013-02-13 03:42:00,44.1,41.9,29.80,NNE,23,1.0,5.0,92,0.00,,,0.00,Wunderground v.1.12,2013-02-13 08:42:00,
2013-02-13 03:47:00,44.1,41.9,29.80,NNE,23,1.0,5.0,92,0.00,,,0.00,Wunderground v.1.12,2013-02-13 08:47:00,
2013-02-13 03:52:00,44.0,41.8,29.80,N/A,-737280,0.0,0.0,92,0.00,,,0.00,Wunderground v.1.12,2013-02-13 08:52:00,
2013-02-13 03:57:00,43.9,41.7,29.80,ENE,68,0.0,3.0,92,0.00,,,0.00,Wunderground v.1.12,2013-02-13 08:57:00,
2013-02-13 04:02:00,43.9,41.7,29.79,NE,45,2.0,7.0,92,0.00,,,0.00,Wunderground v.1.12,2013-02-13 09:02:00,
2013-02-13 04:07:00,43.9,41.7,29.79,North,0,1.0,7.0,92,0.00,,,0.00,Wunderground v.1.12,2013-02-13 09:07:00,
2013-02-13 04:12:00,43.9,41.7,29.79,N/A,-737280,0.0,0.0,92,0.00,,,0.00,Wunderground v.1.12,2013-02-13 09:12:00,
2013-02-13 04:17:00,43.8,41.6,29.79,N/A,-737280,0.0,0.0,92,0.00,,,0.00,Wunderground v.1.12,2013-02-13 09:17:00,
2013-02-13 04:22:00,43.8,41.6,29.79,N/A,-737280,0.0,0.0,92,0.00,,,0.00,Wunderground v.1.12,2013-02-13 09:22:00,
2013-02-13 04:27:00,43.8,41.6,29.79,N/A,-737280,0.0,0.0,92,0.00,,,0.00,Wunderground v.1.12,2013-02-13 09:27:00,
2013-02-13 04:32:00,43.8,41.6,29.79,N/A,-737280,0.0,0.0,92,0.00,,,0.00,Wunderground v.1.12,2013-02-13 09:32:00,
2013-02-13 04:37:00,43.8,41.6,29.79,N/A,-737280,0.0,0.0,92,0.00,,,0.00,Wunderground v.1.12,2013-02-13 09:37:00,
2013-02-13 04:42:00,43.8,41.6,29.79,N/A,-737280,0.0,0.0,92,0.00,,,0.00,Wunderground v.1.12,2013-02-13 09:42:00,
2013-02-13 04:47:00,43.8,41.6,29.79,N/A,-737280,0.0,0.0,92,0.00,,,0.00,Wunderground v.1.12,2013-02-13 09:47:00,
2013-02-13 04:52:00,43.8,41.6,29.79,N/A,-737280,0.0,0.0,92,0.00,,,0.00,Wunderground v.1.12,2013-02-13 09:52:00,
2013-02-13 04:57:00,43.8,41.6,29.79,N/A,-737280,0.0,0.0,92,0.00,,,0.00,Wunderground v.1.12,2013-02-13 09:57:00,
2013-02-13 05:02:00,43.8,41.6,29.77,N/A,-737280,0.0,0.0,92,0.00,,,0.00,Wunderground v.1.12,2013-02-13 10:02:00,
2013-02-13 05:07:00,43.8,41.6,29.77,ENE,68,1.0,8.0,92,0.00,,,0.00,Wunderground v.1.12,2013-02-13 10:07:00,
2013-02-13 05:12:00,43.8,41.6,29.77,N/A,-737280,0.0,0.0,92,0.00,,,0.00,Wunderground v.1.12,2013-02-13 10:12:00,
2013-02-13 05:17:00,43.8,41.9,29.76,N/A,-737280,0.0,0.0,93,0.00,,,0.00,Wunderground v.1.12,2013-02-13 10:17:00,
2013-02-13 05:22:00,43.8,41.9,29.76,NNE,23,1.0,6.0,93,0.00,,,0.00,Wunderground v.1.12,2013-02-13 10:22:00,
2013-02-13 05:27:00,43.8,41.9,29.76,N/A,-737280,0.0,0.0,93,0.00,,,0.00,Wunderground v.1.12,2013-02-13 10:27:00,
2013-02-13 05:32:00,43.8,41.9,29.76,NNW,338,0.0,5.0,93,0.00,,,0.00,Wunderground v.1.12,2013-02-13 10:32:00,
2013-02-13 05:37:00,43.8,41.9,29.76,NE,45,0.0,2.0,93,0.00,,,0.00,Wunderground v.1.12,2013-02-13 10:37:00,
2013-02-13 05:42:00,43.8,41.9,29.76,NE,45,0.0,6.0,93,0.00,,,0.00,Wunderground v.1.12,2013-02-13 10:42:00,
2013-02-13 05:47:00,43.8,41.9,29.76,NNE,23,0.0,1.0,93,0.00,,,0.00,Wunderground v.1.12,2013-02-13 10:47:00,
2013-02-13 05:52:00,43.8,41.9,29.76,NNE,23,0.0,4.0,93,0.00,,,0.00,Wunderground v.1.12,2013-02-13 10:52:00,
2013-02-13 05:57:00,43.8,41.9,29.76,NE,45,0.0,3.0,93,0.00,,,0.00,Wunderground v.1.12,2013-02-13 10:57:00,
2013-02-13 06:02:00,43.8,41.9,29.77,N/A,-737280,0.0,0.0,93,0.00,,,0.00,Wunderground v.1.12,2013-02-13 11:02:00,
2013-02-13 06:07:00,43.8,41.9,29.77,NNE,23,0.0,3.0,93,0.00,,,0.00,Wunderground v.1.12,2013-02-13 11:07:00,
2013-02-13 06:12:00,43.8,41.9,29.77,NNE,23,0.0,2.0,93,0.00,,,0.00,Wunderground v.1.12,2013-02-13 11:12:00,
2013-02-13 06:17:00,43.8,41.9,29.75,NE,45,0.0,7.0,93,0.00,,,0.00,Wunderground v.1.12,2013-02-13 11:17:00,
2013-02-13 06:22:00,43.8,41.9,29.75,NE,45,0.0,1.0,93,0.00,,,0.00,Wunderground v.1.12,2013-02-13 11:22:00,
2013-02-13 06:27:00,43.8,41.9,29.75,N/A,-737280,0.0,0.0,93,0.00,,,0.00,Wunderground v.1.12,2013-02-13 11:27:00,
2013-02-13 06:32:00,43.8,41.9,29.75,NE,45,1.0,6.0,93,0.00,,,0.00,Wunderground v.1.12,2013-02-13 11:32:00,
2013-02-13 06:37:00,43.9,42.3,29.75,NE,45,0.0,1.0,94,0.00,,,0.00,Wunderground v.1.12,2013-02-13 11:37:00,
2013-02-13 06:42:00,43.9,42.3,29.75,ENE,68,1.0,10.0,94,0.00,,,0.00,Wunderground v.1.12,2013-02-13 11:42:00,
2013-02-13 06:47:00,43.9,42.3,29.76,NE,45,0.0,3.0,94,0.00,,,0.00,Wunderground v.1.12,2013-02-13 11:47:00,
2013-02-13 06:52:00,43.9,42.3,29.76,NNE,23,0.0,3.0,94,0.00,,,0.00,Wunderground v.1.12,2013-02-13 11:52:00,
2013-02-13 06:57:00,43.9,42.3,29.76,N/A,-737280,0.0,0.0,94,0.00,,,0.00,Wunderground v.1.12,2013-02-13 11:57:00,
2013-02-13 07:02:00,43.9,42.3,29.75,N/A,-737280,0.0,0.0,94,0.00,,,0.00,Wunderground v.1.12,2013-02-13 12:02:00,
2013-02-13 07:07:00,43.9,42.3,29.75,NNE,23,0.0,6.0,94,0.00,,,0.00,Wunderground v.1.12,2013-02-13 12:07:00,
2013-02-13 07:12:00,43.9,42.3,29.75,N/A,-737280,0.0,0.0,94,0.00,,,0.00,Wunderground v.1.12,2013-02-13 12:12:00,
2013-02-13 07:17:00,43.9,42.3,29.76,N/A,-737280,0.0,0.0,94,0.00,,,0.00,Wunderground v.1.12,2013-02-13 12:17:00,
2013-02-13 07:22:00,43.9,42.3,29.76,N/A,-737280,0.0,0.0,94,0.00,,,0.00,Wunderground v.1.12,2013-02-13 12:22:00,
2013-02-13 07:27:00,43.9,42.3,29.76,NE,45,0.0,5.0,94,0.00,,,0.00,Wunderground v.1.12,2013-02-13 12:27:00,
2013-02-13 07:32:00,43.9,42.3,29.77,SE,135,0.0,6.0,94,0.00,,,0.00,Wunderground v.1.12,2013-02-13 12:32:00,
2013-02-13 07:37:00,43.9,42.3,29.77,NE,45,0.0,5.0,94,0.00,,,0.00,Wunderground v.1.12,2013-02-13 12:37:00,
2013-02-13 07:42:00,43.9,42.3,29.77,NW,315,0.0,2.0,94,0.00,,,0.00,Wunderground v.1.12,2013-02-13 12:42:00,
2013-02-13 07:47:00,43.9,42.3,29.77,N/A,-737280,0.0,0.0,94,0.00,,,0.00,Wunderground v.1.12,2013-02-13 12:47:00,
2013-02-13 07:52:00,43.9,42.3,29.77,N/A,-737280,0.0,0.0,94,0.00,,,0.00,Wunderground v.1.12,2013-02-13 12:52:00,
2013-02-13 07:57:00,43.9,42.3,29.77,N/A,-737280,0.0,0.0,94,0.00,,,0.00,Wunderground v.1.12,2013-02-13 12:57:00,
2013-02-13 08:02:00,43.9,42.3,29.75,N/A,-737280,0.0,0.0,94,0.00,,,0.00,Wunderground v.1.12,2013-02-13 13:02:00,
2013-02-13 08:07:00,44.0,42.4,29.75,N/A,-737280,0.0,0.0,94,0.00,,,0.00,Wunderground v.1.12,2013-02-13 13:07:00,
2013-02-13 08:12:00,44.1,42.5,29.75,N/A,-737280,0.0,0.0,94,0.00,,,0.00,Wunderground v.1.12,2013-02-13 13:12:00,
2013-02-13 08:17:00,44.1,42.5,29.76,N/A,-737280,0.0,0.0,94,0.00,,,0.00,Wunderground v.1.12,2013-02-13 13:17:00,
2013-02-13 08:22:00,44.1,42.5,29.76,N/A,-737280,0.0,0.0,94,0.00,,,0.00,Wunderground v.1.12,2013-02-13 13:22:00,
2013-02-13 08:27:00,44.1,42.5,29.76,N/A,-737280,0.0,0.0,94,0.00,,,0.00,Wunderground v.1.12,2013-02-13 13:27:00,
2013-02-13 08:32:00,44.1,42.8,29.76,N/A,-737280,0.0,0.0,95,0.00,,,0.00,Wunderground v.1.12,2013-02-13 13:32:00,
2013-02-13 08:37:00,44.1,42.8,29.76,N/A,-737280,0.0,0.0,95,0.00,,,0.00,Wunderground v.1.12,2013-02-13 13:37:00,
2013-02-13 08:42:00,44.1,42.8,29.76,N/A,-737280,0.0,0.0,95,0.00,,,0.00,Wunderground v.1.12,2013-02-13 13:42:00,
2013-02-13 08:47:00,44.2,42.9,29.78,N/A,-737280,0.0,0.0,95,0.00,,,0.00,Wunderground v.1.12,2013-02-13 13:47:00,
2013-02-13 08:52:00,44.2,42.9,29.78,N/A,-737280,0.0,0.0,95,0.00,,,0.00,Wunderground v.1.12,2013-02-13 13:52:00,
2013-02-13 08:57:00,44.2,42.9,29.78,N/A,-737280,0.0,0.0,95,0.00,,,0.00,Wunderground v.1.12,2013-02-13 13:57:00,
2013-02-13 09:02:00,44.2,42.9,29.78,N/A,-737280,0.0,0.0,95,0.00,,,0.00,Wunderground v.1.12,2013-02-13 14:02:00,
2013-02-13 09:07:00,44.2,42.9,29.78,N/A,-737280,0.0,0.0,95,0.00,,,0.00,Wunderground v.1.12,2013-02-13 14:07:00,
2013-02-13 09:12:00,44.2,42.9,29.78,N/A,-737280,0.0,0.0,95,0.00,,,0.00,Wunderground v.1.12,2013-02-13 14:12:00,
2013-02-13 09:17:00,44.3,43.0,29.78,N/A,-737280,0.0,0.0,95,0.00,,,0.00,Wunderground v.1.12,2013-02-13 14:17:00,
2013-02-13 09:22:00,44.3,43.0,29.78,N/A,-737280,0.0,0.0,95,0.00,,,0.00,Wunderground v.1.12,2013-02-13 14:22:00,
2013-02-13 09:27:00,44.3,43.0,29.78,N/A,-737280,0.0,0.0,95,0.00,,,0.00,Wunderground v.1.12,2013-02-13 14:27:00,
2013-02-13 09:32:00,44.3,43.0,29.76,N/A,-737280,0.0,0.0,95,0.00,,,0.00,Wunderground v.1.12,2013-02-13 14:32:00,
2013-02-13 09:37:00,44.3,43.0,29.76,N/A,-737280,0.0,0.0,95,0.00,,,0.00,Wunderground v.1.12,2013-02-13 14:37:00,
2013-02-13 09:42:00,44.4,43.1,29.76,N/A,-737280,0.0,0.0,95,0.00,,,0.00,Wunderground v.1.12,2013-02-13 14:42:00,
2013-02-13 09:47:00,44.5,43.2,29.76,N/A,-737280,0.0,0.0,95,0.00,,,0.00,Wunderground v.1.12,2013-02-13 14:47:00,
2013-02-13 09:52:00,44.5,43.2,29.76,N/A,-737280,0.0,0.0,95,0.00,,,0.00,Wunderground v.1.12,2013-02-13 14:52:00,
2013-02-13 09:57:00,44.6,43.3,29.76,N/A,-737280,0.0,0.0,95,0.00,,,0.00,Wunderground v.1.12,2013-02-13 14:57:00,
2013-02-13 10:02:00,44.6,43.3,29.78,N/A,-737280,0.0,0.0,95,0.00,,,0.00,Wunderground v.1.12,2013-02-13 15:02:00,
2013-02-13 10:07:00,44.6,43.3,29.78,N/A,-737280,0.0,0.0,95,0.00,,,0.00,Wunderground v.1.12,2013-02-13 15:07:00,
2013-02-13 10:12:00,44.6,43.3,29.78,N/A,-737280,0.0,0.0,95,0.00,,,0.00,Wunderground v.1.12,2013-02-13 15:12:00,
2013-02-13 10:17:00,44.6,43.3,29.79,N/A,-737280,0.0,0.0,95,0.00,,,0.00,Wunderground v.1.12,2013-02-13 15:17:00,
2013-02-13 10:22:00,44.8,43.5,29.79,N/A,-737280,0.0,0.0,95,0.00,,,0.00,Wunderground v.1.12,2013-02-13 15:22:00,
2013-02-13 10:27:00,44.8,43.5,29.79,N/A,-737280,0.0,0.0,95,0.00,,,0.00,Wunderground v.1.12,2013-02-13 15:27:00,
2013-02-13 10:32:00,44.8,43.5,29.77,N/A,-737280,0.0,0.0,95,0.00,,,0.00,Wunderground v.1.12,2013-02-13 15:32:00,
2013-02-13 10:37:00,44.8,43.5,29.77,N/A,-737280,0.0,0.0,95,0.00,,,0.00,Wunderground v.1.12,2013-02-13 15:37:00,
2013-02-13 10:42:00,44.8,43.5,29.77,N/A,-737280,0.0,0.0,95,0.00,,,0.00,Wunderground v.1.12,2013-02-13 15:42:00,
2013-02-13 10:47:00,44.9,43.6,29.77,N/A,-737280,0.0,0.0,95,0.00,,,0.00,Wunderground v.1.12,2013-02-13 15:47:00,
2013-02-13 10:52:00,45.0,43.7,29.77,N/A,-737280,0.0,0.0,95,0.00,,,0.00,Wunderground v.1.12,2013-02-13 15:52:00,
2013-02-13 10:57:00,45.1,43.8,29.77,N/A,-737280,0.0,0.0,95,0.00,,,0.00,Wunderground v.1.12,2013-02-13 15:57:00,
2013-02-13 11:02:00,45.1,43.8,29.79,N/A,-737280,0.0,0.0,95,0.00,,,0.00,Wunderground v.1.12,2013-02-13 16:02:00,
2013-02-13 11:07:00,45.2,43.9,29.79,N/A,-737280,0.0,0.0,95,0.00,,,0.00,Wunderground v.1.12,2013-02-13 16:07:00,
2013-02-13 11:12:00,45.4,44.1,29.79,N/A,-737280,0.0,0.0,95,0.00,,,0.00,Wunderground v.1.12,2013-02-13 16:12:00,
2013-02-13 11:17:00,45.4,44.1,29.80,N/A,-737280,0.0,0.0,95,0.00,,,0.00,Wunderground v.1.12,2013-02-13 16:17:00,
2013-02-13 11:22:00,45.5,44.2,29.80,N/A,-737280,0.0,0.0,95,0.00,,,0.00,Wunderground v.1.12,2013-02-13 16:22:00,
2013-02-13 11:27:00,45.7,44.4,29.80,N/A,-737280,0.0,0.0,95,0.00,,,0.00,Wunderground v.1.12,2013-02-13 16:27:00,
2013-02-13 11:32:00,45.9,44.5,29.81,N/A,-737280,0.0,0.0,95,0.00,,,0.00,Wunderground v.1.12,2013-02-13 16:32:00,
2013-02-13 11:37:00,46.1,44.7,29.81,N/A,-737280,0.0,0.0,95,0.00,,,0.00,Wunderground v.1.12,2013-02-13 16:37:00,
2013-02-13 11:42:00,46.2,44.8,29.81,N/A,-737280,0.0,0.0,95,0.00,,,0.00,Wunderground v.1.12,2013-02-13 16:42:00,
2013-02-13 11:47:00,46.4,45.3,29.80,N/A,-737280,0.0,0.0,96,0.00,,,0.00,Wunderground v.1.12,2013-02-13 16:47:00,
2013-02-13 11:52:00,46.5,45.4,29.80,N/A,-737280,0.0,0.0,96,0.00,,,0.00,Wunderground v.1.12,2013-02-13 16:52:00,
2013-02-13 11:57:00,46.7,45.6,29.80,N/A,-737280,0.0,0.0,96,0.00,,,0.00,Wunderground v.1.12,2013-02-13 16:57:00,
2013-02-13 12:02:00,46.8,45.7,29.80,N/A,-737280,0.0,0.0,96,0.00,,,0.00,Wunderground v.1.12,2013-02-13 17:02:00,
2013-02-13 12:07:00,46.9,45.8,29.80,N/A,-737280,0.0,0.0,96,0.00,,,0.00,Wunderground v.1.12,2013-02-13 17:07:00,
2013-02-13 12:12:00,47.0,45.9,29.80,N/A,-737280,0.0,0.0,96,0.00,,,0.00,Wunderground v.1.12,2013-02-13 17:12:00,
2013-02-13 12:17:00,47.1,46.0,29.79,N/A,-737280,0.0,0.0,96,0.00,,,0.00,Wunderground v.1.12,2013-02-13 17:17:00,
2013-02-13 12:22:00,47.4,46.3,29.79,N/A,-737280,0.0,0.0,96,0.00,,,0.00,Wunderground v.1.12,2013-02-13 17:22:00,
2013-02-13 12:27:00,47.7,46.6,29.79,N/A,-737280,0.0,0.0,96,0.00,,,0.00,Wunderground v.1.12,2013-02-13 17:27:00,
2013-02-13 12:32:00,47.9,46.8,29.80,N/A,-737280,0.0,0.0,96,0.00,,,0.00,Wunderground v.1.12,2013-02-13 17:32:00,
2013-02-13 12:37:00,48.2,47.1,29.80,N/A,-737280,0.0,0.0,96,0.00,,,0.00,Wunderground v.1.12,2013-02-13 17:37:00,
2013-02-13 12:42:00,48.3,47.2,29.80,N/A,-737280,0.0,0.0,96,0.00,,,0.00,Wunderground v.1.12,2013-02-13 17:42:00,
2013-02-13 12:47:00,48.4,47.3,29.78,N/A,-737280,0.0,0.0,96,0.00,,,0.00,Wunderground v.1.12,2013-02-13 17:47:00,
2013-02-13 12:52:00,48.6,47.5,29.78,N/A,-737280,0.0,0.0,96,0.00,,,0.00,Wunderground v.1.12,2013-02-13 17:52:00,
2013-02-13 12:57:00,48.8,47.7,29.78,N/A,-737280,0.0,0.0,96,0.00,,,0.00,Wunderground v.1.12,2013-02-13 17:57:00,
2013-02-13 13:02:00,49.2,48.1,29.79,N/A,-737280,0.0,0.0,96,0.00,,,0.00,Wunderground v.1.12,2013-02-13 18:02:00,
2013-02-13 13:07:00,49.5,48.4,29.79,N/A,-737280,0.0,0.0,96,0.00,,,0.00,Wunderground v.1.12,2013-02-13 18:07:00,
2013-02-13 13:12:00,49.6,48.5,29.79,N/A,-737280,0.0,0.0,96,0.00,,,0.00,Wunderground v.1.12,2013-02-13 18:12:00,
2013-02-13 13:17:00,49.6,48.2,29.78,N/A,-737280,0.0,0.0,95,0.00,,,0.00,Wunderground v.1.12,2013-02-13 18:17:00,
2013-02-13 13:22:00,49.7,48.3,29.78,N/A,-737280,0.0,0.0,95,0.00,,,0.00,Wunderground v.1.12,2013-02-13 18:22:00,
2013-02-13 13:27:00,49.8,48.4,29.78,N/A,-737280,0.0,0.0,95,0.00,,,0.00,Wunderground v.1.12,2013-02-13 18:27:00,
2013-02-13 13:32:00,50.0,48.6,29.78,N/A,-737280,0.0,0.0,95,0.00,,,0.00,Wunderground v.1.12,2013-02-13 18:32:00,
2013-02-13 13:37:00,50.2,48.8,29.78,WSW,248,0.0,4.0,95,0.00,,,0.00,Wunderground v.1.12,2013-02-13 18:37:00,
2013-02-13 13:42:00,50.3,48.6,29.78,N/A,-737280,0.0,0.0,94,0.00,,,0.00,Wunderground v.1.12,2013-02-13 18:42:00,
2013-02-13 13:47:00,50.1,48.2,29.79,West,270,0.0,1.0,93,0.00,,,0.00,Wunderground v.1.12,2013-02-13 18:47:00,
2013-02-13 13:52:00,49.9,48.0,29.79,NW,315,0.0,2.0,93,0.00,,,0.00,Wunderground v.1.12,2013-02-13 18:52:00,
2013-02-13 13:57:00,49.8,47.6,29.79,WNW,293,1.0,5.0,92,0.00,,,0.00,Wunderground v.1.12,2013-02-13 18:57:00,
2013-02-13 14:02:00,49.9,47.7,29.78,N/A,-737280,0.0,0.0,92,0.00,,,0.00,Wunderground v.1.12,2013-02-13 19:02:00,
2013-02-13 14:07:00,50.0,47.2,29.78,WNW,293,0.0,1.0,90,0.00,,,0.00,Wunderground v.1.12,2013-02-13 19:07:00,
2013-02-13 14:12:00,49.9,46.8,29.78,WNW,293,0.0,1.0,89,0.00,,,0.00,Wunderground v.1.12,2013-02-13 19:12:00,
2013-02-13 14:17:00,49.9,46.5,29.78,N/A,-737280,0.0,0.0,88,0.00,,,0.00,Wunderground v.1.12,2013-02-13 19:17:00,
2013-02-13 14:22:00,49.9,46.2,29.78,N/A,-737280,0.0,0.0,87,0.00,,,0.00,Wunderground v.1.12,2013-02-13 19:22:00,
2013-02-13 14:27:00,50.1,46.4,29.78,N/A,-737280,0.0,0.0,87,0.00,,,0.00,Wunderground v.1.12,2013-02-13 19:27:00,
2013-02-13 14:32:00,50.0,45.7,29.78,N/A,-737280,0.0,0.0,85,0.00,,,0.00,Wunderground v.1.12,2013-02-13 19:32:00,
2013-02-13 14:37:00,49.8,45.2,29.78,N/A,-737280,0.0,0.0,84,0.00,,,0.00,Wunderground v.1.12,2013-02-13 19:37:00,
2013-02-13 14:42:00,49.6,44.3,29.78,West,270,0.0,1.0,82,0.00,,,0.00,Wunderground v.1.12,2013-02-13 19:42:00,
2013-02-13 14:47:00,49.6,44.3,29.79,West,270,0.0,3.0,82,0.00,,,0.00,Wunderground v.1.12,2013-02-13 19:47:00,
2013-02-13 14:52:00,49.5,43.9,29.79,West,270,1.0,6.0,81,0.00,,,0.00,Wunderground v.1.12,2013-02-13 19:52:00,
2013-02-13 14:57:00,49.4,43.8,29.79,WSW,248,0.0,1.0,81,0.00,,,0.00,Wunderground v.1.12,2013-02-13 19:57:00,
2013-02-13 15:02:00,49.4,43.5,29.79,West,270,0.0,5.0,80,0.00,,,0.00,Wunderground v.1.12,2013-02-13 20:02:00,
2013-02-13 15:07:00,49.4,43.5,29.79,N/A,-737280,0.0,0.0,80,0.00,,,0.00,Wunderground v.1.12,2013-02-13 20:07:00,
2013-02-13 15:12:00,49.3,43.1,29.79,West,270,1.0,6.0,79,0.00,,,0.00,Wunderground v.1.12,2013-02-13 20:12:00,
2013-02-13 15:17:00,48.9,42.7,29.79,West,270,2.0,6.0,79,0.00,,,0.00,Wunderground v.1.12,2013-02-13 20:17:00,
2013-02-13 15:22:00,48.5,42.0,29.79,WNW,293,2.0,6.0,78,0.00,,,0.00,Wunderground v.1.12,2013-02-13 20:22:00,
2013-02-13 15:27:00,48.2,41.7,29.79,WNW,293,1.0,7.0,78,0.00,,,0.00,Wunderground v.1.12,2013-02-13 20:27:00,
2013-02-13 15:32:00,48.0,41.8,29.80,West,270,1.0,5.0,79,0.00,,,0.00,Wunderground v.1.12,2013-02-13 20:32:00,
2013-02-13 15:37:00,47.8,41.6,29.80,West,270,1.0,7.0,79,0.00,,,0.00,Wunderground v.1.12,2013-02-13 20:37:00,
2013-02-13 15:42:00,47.6,41.4,29.80,WNW,293,2.0,7.0,79,0.00,,,0.00,Wunderground v.1.12,2013-02-13 20:42:00,
2013-02-13 15:47:00,47.4,41.2,29.81,WNW,293,1.0,6.0,79,0.00,,,0.00,Wunderground v.1.12,2013-02-13 20:47:00,
2013-02-13 15:52:00,47.2,41.0,29.81,N/A,-737280,0.0,0.0,79,0.00,,,0.00,Wunderground v.1.12,2013-02-13 20:52:00,
2013-02-13 15:57:00,47.0,41.1,29.81,West,270,1.0,7.0,80,0.00,,,0.00,Wunderground v.1.12,2013-02-13 20:57:00,
2013-02-13 16:02:00,46.8,41.3,29.81,N/A,-737280,0.0,0.0,81,0.00,,,0.00,Wunderground v.1.12,2013-02-13 21:02:00,
2013-02-13 16:07:00,46.7,41.2,29.81,N/A,-737280,0.0,0.0,81,0.00,,,0.00,Wunderground v.1.12,2013-02-13 21:07:00,
2013-02-13 16:12:00,46.5,41.0,29.81,WNW,293,1.0,8.0,81,0.00,,,0.00,Wunderground v.1.12,2013-02-13 21:12:00,
2013-02-13 16:17:00,46.3,41.1,29.81,WNW,293,1.0,6.0,82,0.00,,,0.00,Wunderground v.1.12,2013-02-13 21:17:00,
2013-02-13 16:22:00,46.2,41.0,29.81,WNW,293,0.0,3.0,82,0.00,,,0.00,Wunderground v.1.12,2013-02-13 21:22:00,
2013-02-13 16:27:00,46.1,40.9,29.81,N/A,-737280,0.0,0.0,82,0.00,,,0.00,Wunderground v.1.12,2013-02-13 21:27:00,
2013-02-13 16:32:00,46.0,40.8,29.82,N/A,-737280,0.0,0.0,82,0.00,,,0.00,Wunderground v.1.12,2013-02-13 21:32:00,
2013-02-13 16:37:00,45.8,40.9,29.82,N/A,-737280,0.0,0.0,83,0.00,,,0.00,Wunderground v.1.12,2013-02-13 21:37:00,
2013-02-13 16:42:00,45.8,40.9,29.82,West,270,0.0,3.0,83,0.00,,,0.00,Wunderground v.1.12,2013-02-13 21:42:00,
2013-02-13 16:47:00,45.9,41.0,29.81,N/A,-737280,0.0,0.0,83,0.00,,,0.00,Wunderground v.1.12,2013-02-13 21:47:00,
2013-02-13 16:52:00,46.1,41.2,29.81,N/A,-737280,0.0,0.0,83,0.00,,,0.00,Wunderground v.1.12,2013-02-13 21:52:00,
2013-02-13 16:57:00,46.2,41.0,29.81,N/A,-737280,0.0,0.0,82,0.00,,,0.00,Wunderground v.1.12,2013-02-13 21:57:00,
2013-02-13 17:02:00,46.3,41.1,29.81,West,270,0.0,4.0,82,0.00,,,0.00,Wunderground v.1.12,2013-02-13 22:02:00,
2013-02-13 17:11:00,46.4,39.9,29.85,West,271,0.0,-999.0,78,0.00,,,0.00,Wunderground v.1.12,2013-02-13 22:11:00,
2013-02-13 17:16:00,46.2,39.7,29.85,West,271,0.0,-999.0,78,0.00,,,0.00,Wunderground v.1.12,2013-02-13 22:16:00,
2013-02-13 17:21:00,46.2,39.7,29.85,West,271,0.0,-999.0,78,0.00,,,0.00,Wunderground v.1.12,2013-02-13 22:21:00,
2013-02-13 17:26:00,46.2,39.7,29.84,West,271,0.0,-999.0,78,0.00,,,0.00,Wunderground v.1.12,2013-02-13 22:26:00,
2013-02-13 17:31:00,46.2,40.0,29.84,West,271,0.0,-999.0,79,0.00,,,0.00,Wunderground v.1.12,2013-02-13 22:31:00,
2013-02-13 17:36:00,46.2,40.0,29.84,West,271,0.0,-999.0,79,0.00,,,0.00,Wunderground v.1.12,2013-02-13 22:36:00,
2013-02-13 17:42:00,46.1,39.6,29.86,West,271,0.0,-999.0,78,0.00,,,0.00,Wunderground v.1.12,2013-02-13 22:42:00,
2013-02-13 17:47:00,46.1,39.6,29.86,NW,304,0.0,-999.0,78,0.00,,,0.00,Wunderground v.1.12,2013-02-13 22:47:00,
2013-02-13 17:52:00,46.0,39.5,29.86,WNW,284,0.0,-999.0,78,0.00,,,0.00,Wunderground v.1.12,2013-02-13 22:52:00,
2013-02-13 17:57:00,46.0,39.5,29.86,WNW,287,0.0,-999.0,78,0.00,,,0.00,Wunderground v.1.12,2013-02-13 22:57:00,
2013-02-13 18:02:00,46.0,39.5,29.86,WNW,287,0.0,-999.0,78,0.00,,,0.00,Wunderground v.1.12,2013-02-13 23:02:00,
2013-02-13 18:07:00,45.8,39.3,29.86,WNW,288,0.0,-999.0,78,0.00,,,0.00,Wunderground v.1.12,2013-02-13 23:07:00,
2013-02-13 18:12:00,45.8,39.3,29.87,NW,311,0.0,-999.0,78,0.00,,,0.00,Wunderground v.1.12,2013-02-13 23:12:00,
2013-02-13 18:17:00,45.7,39.2,29.87,NNW,346,0.0,-999.0,78,0.00,,,0.00,Wunderground v.1.12,2013-02-13 23:17:00,
2013-02-13 18:22:00,45.7,39.2,29.87,NW,307,0.0,-999.0,78,0.00,,,0.00,Wunderground v.1.12,2013-02-13 23:22:00,
2013-02-13 18:27:00,45.5,38.7,29.88,WNW,286,0.0,-999.0,77,0.00,,,0.00,Wunderground v.1.12,2013-02-13 23:27:00,
2013-02-13 18:32:00,45.5,38.7,29.88,WNW,287,2.0,-999.0,77,0.00,,,0.00,Wunderground v.1.12,2013-02-13 23:32:00,
2013-02-13 18:37:00,45.4,38.6,29.88,WNW,290,2.0,-999.0,77,0.00,,,0.00,Wunderground v.1.12,2013-02-13 23:37:00,
2013-02-13 18:42:00,45.1,38.0,29.90,West,269,0.0,-999.0,76,0.00,,,0.00,Wunderground v.1.12,2013-02-13 23:42:00,
2013-02-13 18:47:00,45.1,37.6,29.90,WNW,291,2.0,-999.0,75,0.00,,,0.00,Wunderground v.1.12,2013-02-13 23:47:00,
2013-02-13 18:52:00,44.9,37.1,29.90,WNW,286,0.0,-999.0,74,0.00,,,0.00,Wunderground v.1.12,2013-02-13 23:52:00,
2013-02-13 18:57:00,44.8,37.0,29.90,WNW,284,0.0,-999.0,74,0.00,,,0.00,Wunderground v.1.12,2013-02-13 23:57:00,
2013-02-13 19:02:00,44.6,36.5,29.90,West,271,0.0,-999.0,73,0.00,,,0.00,Wunderground v.1.12,2013-02-14 00:02:00,
2013-02-13 19:07:00,44.6,36.5,29.90,West,281,2.0,-999.0,73,0.00,,,0.00,Wunderground v.1.12,2013-02-14 00:07:00,
2013-02-13 19:12:00,44.5,36.4,29.91,SW,229,1.0,-999.0,73,0.00,,,0.00,Wunderground v.1.12,2013-02-14 00:12:00,
2013-02-13 19:17:00,44.2,36.1,29.91,West,278,0.0,-999.0,73,0.00,,,0.00,Wunderground v.1.12,2013-02-14 00:17:00,
2013-02-13 19:22:00,44.1,36.0,29.91,NW,312,2.0,-999.0,73,0.00,,,0.00,Wunderground v.1.12,2013-02-14 00:22:00,
2013-02-13 19:27:00,43.9,35.8,29.91,NNW,346,0.0,-999.0,73,0.00,,,0.00,Wunderground v.1.12,2013-02-14 00:27:00,
2013-02-13 19:32:00,43.8,36.0,29.91,NNW,339,0.0,-999.0,74,0.00,,,0.00,Wunderground v.1.12,2013-02-14 00:32:00,
2013-02-13 19:37:00,43.5,35.8,29.91,WNW,300,0.0,-999.0,74,0.00,,,0.00,Wunderground v.1.12,2013-02-14 00:37:00,
2013-02-13 19:42:00,43.3,35.6,29.92,West,269,0.0,-999.0,74,0.00,,,0.00,Wunderground v.1.12,2013-02-14 00:42:00,
2013-02-13 19:47:00,43.2,35.5,29.92,West,270,0.0,-999.0,74,0.00,,,0.00,Wunderground v.1.12,2013-02-14 00:47:00,
2013-02-13 19:52:00,43.1,35.4,29.92,SSW,194,0.0,-999.0,74,0.00,,,0.00,Wunderground v.1.12,2013-02-14 00:52:00,
2013-02-13 19:57:00,42.9,35.5,29.92,SSW,206,0.0,-999.0,75,0.00,,,0.00,Wunderground v.1.12,2013-02-14 00:57:00,
2013-02-13 20:02:00,42.8,35.4,29.92,SSW,211,0.0,-999.0,75,0.00,,,0.00,Wunderground v.1.12,2013-02-14 01:02:00,
2013-02-13 20:07:00,42.8,35.4,29.92,SW,219,0.0,-999.0,75,0.00,,,0.00,Wunderground v.1.12,2013-02-14 01:07:00,
2013-02-13 20:12:00,42.6,35.2,29.93,NW,308,0.0,-999.0,75,0.00,,,0.00,Wunderground v.1.12,2013-02-14 01:12:00,
2013-02-13 20:17:00,42.6,35.2,29.93,West,264,0.0,-999.0,75,0.00,,,0.00,Wunderground v.1.12,2013-02-14 01:17:00,
2013-02-13 20:23:00,42.5,35.1,29.93,West,264,0.0,-999.0,75,0.00,,,0.00,Wunderground v.1.12,2013-02-14 01:23:00,
2013-02-13 20:28:00,42.5,35.1,29.93,West,270,0.0,-999.0,75,0.00,,,0.00,Wunderground v.1.12,2013-02-14 01:28:00,
2013-02-13 20:33:00,42.5,34.8,29.93,West,269,0.0,-999.0,74,0.00,,,0.00,Wunderground v.1.12,2013-02-14 01:33:00,
2013-02-13 20:38:00,42.3,34.6,29.93,West,270,0.0,-999.0,74,0.00,,,0.00,Wunderground v.1.12,2013-02-14 01:38:00,
2013-02-13 20:44:00,42.3,34.6,29.94,West,269,0.0,-999.0,74,0.00,,,0.00,Wunderground v.1.12,2013-02-14 01:44:00,
2013-02-13 20:49:00,42.2,34.2,29.94,WSW,257,0.0,-999.0,73,0.00,,,0.00,Wunderground v.1.12,2013-02-14 01:49:00,
2013-02-13 20:54:00,42.2,34.5,29.94,West,270,0.0,-999.0,74,0.00,,,0.00,Wunderground v.1.12,2013-02-14 01:54:00,
2013-02-13 20:59:00,42.2,34.5,29.94,West,270,0.0,-999.0,74,0.00,,,0.00,Wunderground v.1.12,2013-02-14 01:59:00,
2013-02-13 21:04:00,42.1,34.4,29.94,West,269,0.0,-999.0,74,0.00,,,0.00,Wunderground v.1.12,2013-02-14 02:04:00,
2013-02-13 21:09:00,42.1,34.4,29.94,WNW,298,0.0,-999.0,74,0.00,,,0.00,Wunderground v.1.12,2013-02-14 02:09:00,
2013-02-13 21:14:00,41.9,34.2,29.94,WNW,295,0.0,-999.0,74,0.00,,,0.00,Wunderground v.1.12,2013-02-14 02:14:00,
2013-02-13 21:20:00,41.9,34.6,29.94,West,280,0.0,-999.0,75,0.00,,,0.00,Wunderground v.1.12,2013-02-14 02:20:00,
2013-02-13 21:25:00,41.8,34.5,29.94,West,280,0.0,-999.0,75,0.00,,,0.00,Wunderground v.1.12,2013-02-14 02:25:00,
2013-02-13 21:30:00,41.6,34.3,29.95,West,269,0.0,-999.0,75,0.00,,,0.00,Wunderground v.1.12,2013-02-14 02:30:00,
2013-02-13 21:35:00,41.6,34.3,29.95,NW,311,0.0,-999.0,75,0.00,,,0.00,Wunderground v.1.12,2013-02-14 02:35:00,
2013-02-13 21:40:00,41.5,34.2,29.95,NW,311,0.0,-999.0,75,0.00,,,0.00,Wunderground v.1.12,2013-02-14 02:40:00,
2013-02-13 21:45:00,41.5,34.2,29.95,NW,312,0.0,-999.0,75,0.00,,,0.00,Wunderground v.1.12,2013-02-14 02:45:00,
2013-02-13 21:50:00,41.3,34.0,29.95,WNW,286,0.0,-999.0,75,0.00,,,0.00,Wunderground v.1.12,2013-02-14 02:50:00,
2013-02-13 21:55:00,41.2,33.9,29.95,WNW,286,0.0,-999.0,75,0.00,,,0.00,Wunderground v.1.12,2013-02-14 02:55:00,
2013-02-13 22:00:00,40.9,33.6,29.96,WNW,287,0.0,-999.0,75,0.00,,,0.00,Wunderground v.1.12,2013-02-14 03:00:00,
2013-02-13 22:06:00,40.8,33.5,29.96,WNW,287,0.0,-999.0,75,0.00,,,0.00,Wunderground v.1.12,2013-02-14 03:06:00,
2013-02-13 22:11:00,40.6,33.3,29.96,WNW,287,0.0,-999.0,75,0.00,,,0.00,Wunderground v.1.12,2013-02-14 03:11:00,
2013-02-13 22:16:00,40.5,33.2,29.96,WNW,287,0.0,-999.0,75,0.00,,,0.00,Wunderground v.1.12,2013-02-14 03:16:00,
2013-02-13 22:21:00,40.3,33.0,29.96,WNW,287,0.0,-999.0,75,0.00,,,0.00,Wunderground v.1.12,2013-02-14 03:21:00,
2013-02-13 22:26:00,40.2,33.2,29.96,WNW,287,0.0,-999.0,76,0.00,,,0.00,Wunderground v.1.12,2013-02-14 03:26:00,
2013-02-13 22:31:00,40.1,33.1,29.96,WNW,287,0.0,-999.0,76,0.00,,,0.00,Wunderground v.1.12,2013-02-14 03:31:00,
2013-02-13 22:36:00,39.9,32.9,29.96,WNW,287,0.0,-999.0,76,0.00,,,0.00,Wunderground v.1.12,2013-02-14 03:36:00,
2013-02-13 22:41:00,39.8,33.2,29.96,WNW,287,0.0,-999.0,77,0.00,,,0.00,Wunderground v.1.12,2013-02-14 03:41:00,
2013-02-13 22:46:00,39.6,33.0,29.96,WNW,287,0.0,-999.0,77,0.00,,,0.00,Wunderground v.1.12,2013-02-14 03:46:00,
2013-02-13 22:51:00,39.5,32.9,29.96,WNW,287,0.0,-999.0,77,0.00,,,0.00,Wunderground v.1.12,2013-02-14 03:51:00,
2013-02-13 22:56:00,39.3,32.7,29.96,WNW,287,0.0,-999.0,77,0.00,,,0.00,Wunderground v.1.12,2013-02-14 03:56:00,
2013-02-13 23:01:00,39.2,32.9,29.97,WNW,287,0.0,-999.0,78,0.00,,,0.00,Wunderground v.1.12,2013-02-14 04:01:00,
2013-02-13 23:06:00,39.1,32.8,29.97,WNW,287,0.0,-999.0,78,0.00,,,0.00,Wunderground v.1.12,2013-02-14 04:06:00,
2013-02-13 23:11:00,38.9,32.6,29.97,WNW,287,0.0,-999.0,78,0.00,,,0.00,Wunderground v.1.12,2013-02-14 04:11:00,
2013-02-13 23:16:00,38.8,32.5,29.97,WNW,287,0.0,-999.0,78,0.00,,,0.00,Wunderground v.1.12,2013-02-14 04:16:00,
2013-02-13 23:21:00,38.6,32.3,29.97,WNW,287,0.0,-999.0,78,0.00,,,0.00,Wunderground v.1.12,2013-02-14 04:21:00,
2013-02-13 23:26:00,38.5,32.6,29.98,WNW,287,0.0,-999.0,79,0.00,,,0.00,Wunderground v.1.12,2013-02-14 04:26:00,
2013-02-13 23:31:00,38.3,32.4,29.98,WNW,287,0.0,-999.0,79,0.00,,,0.00,Wunderground v.1.12,2013-02-14 04:31:00,
2013-02-13 23:36:00,38.3,32.7,29.98,WNW,287,0.0,-999.0,80,0.00,,,0.00,Wunderground v.1.12,2013-02-14 04:36:00,
2013-02-13 23:41:00,38.2,32.6,29.98,WNW,287,0.0,-999.0,80,0.00,,,0.00,Wunderground v.1.12,2013-02-14 04:41:00,
2013-02-13 23:46:00,38.2,33.2,29.98,WNW,287,0.0,-999.0,82,0.00,,,0.00,Wunderground v.1.12,2013-02-14 04:46:00,
2013-02-13 23:51:00,38.2,33.2,29.98,WNW,286,0.0,-999.0,82,0.00,,,0.00,Wunderground v.1.12,2013-02-14 04:51:00,
2013-02-13 23:56:00,38.2,33.5,29.98,WNW,287,0.0,-999.0,83,0.00,,,0.00,Wunderground v.1.12,2013-02-14 04:56:00,